createdAt,value
2024-03-20T00:00:28.526Z,50.09
2024-03-20T00:01:28.550Z,50.09
2024-03-20T00:02:28.622Z,50.70
2024-03-20T00:03:28.661Z,52.05
2024-03-20T00:04:28.708Z,52.18
2024-03-20T00:05:29.117Z,50.90
2024-03-20T00:06:28.805Z,51.92
2024-03-20T00:07:28.877Z,53.25
2024-03-20T00:08:28.919Z,52.94
2024-03-20T00:09:28.982Z,53.53
2024-03-20T00:10:29.065Z,50.00
2024-03-20T00:11:29.103Z,53.85
2024-03-20T00:12:29.157Z,53.00
2024-03-20T00:13:29.196Z,54.00
2024-03-20T00:14:29.238Z,53.62
2024-03-20T00:15:29.365Z,52.29
2024-03-20T00:16:29.397Z,51.68
2024-03-20T00:17:29.436Z,52.45
2024-03-20T00:18:29.463Z,52.02
2024-03-20T00:19:29.521Z,51.56
2024-03-20T00:20:29.605Z,52.40
2024-03-20T00:21:29.626Z,53.21
2024-03-20T00:22:29.696Z,52.43
2024-03-20T00:23:29.760Z,53.50
2024-03-20T00:24:29.817Z,51.73
2024-03-20T00:25:29.875Z,51.00
2024-03-20T00:26:29.948Z,52.54
2024-03-20T00:27:30.006Z,52.91
2024-03-20T00:28:30.056Z,52.77
2024-03-20T00:29:30.077Z,52.39
2024-03-20T00:30:30.127Z,52.17
2024-03-20T00:31:30.187Z,51.67
2024-03-20T00:32:30.241Z,53.66
2024-03-20T00:33:30.282Z,50.16
2024-03-20T00:34:30.365Z,52.22
2024-03-20T00:35:30.380Z,51.67
2024-03-20T00:36:30.486Z,53.05
2024-03-20T00:37:30.497Z,52.44
2024-03-20T00:38:30.572Z,52.47
2024-03-20T00:39:30.657Z,53.97
2024-03-20T00:40:30.713Z,50.95
2024-03-20T00:41:30.735Z,51.76
2024-03-20T00:42:30.826Z,53.94
2024-03-20T00:43:30.875Z,51.95
2024-03-20T00:44:30.937Z,52.06
2024-03-20T00:45:31.000Z,52.40
2024-03-20T00:46:31.023Z,52.65
2024-03-20T00:47:31.078Z,54.94
2024-03-20T00:48:31.119Z,53.41
2024-03-20T00:49:31.181Z,51.82
2024-03-20T00:50:31.293Z,52.40
2024-03-20T00:51:31.312Z,54.12
2024-03-20T00:52:38.424Z,52.29
2024-03-20T00:53:32.342Z,52.34
2024-03-20T00:54:31.377Z,52.70
2024-03-20T00:55:31.385Z,52.57
2024-03-20T00:56:31.341Z,52.98
2024-03-20T00:57:31.388Z,53.45
2024-03-20T00:58:31.404Z,51.88
2024-03-20T00:59:31.352Z,53.50
2024-03-20T01:00:31.410Z,51.87
2024-03-20T01:01:31.404Z,53.03
2024-03-20T01:02:31.359Z,53.14
2024-03-20T01:03:31.455Z,51.66
2024-03-20T01:04:31.519Z,52.93
2024-03-20T01:05:31.641Z,52.91
2024-03-20T01:06:31.590Z,53.00
2024-03-20T01:07:31.663Z,52.76
2024-03-20T01:08:31.789Z,51.36
2024-03-20T01:09:31.774Z,51.97
2024-03-20T01:10:31.812Z,51.88
2024-03-20T01:11:31.873Z,51.83
2024-03-20T01:12:31.903Z,51.63
2024-03-20T01:13:31.975Z,53.87
2024-03-20T01:14:32.031Z,52.86
2024-03-20T01:15:32.171Z,52.59
2024-03-20T01:16:32.133Z,53.78
2024-03-20T01:17:32.232Z,53.10
2024-03-20T01:18:32.254Z,51.59
2024-03-20T01:19:32.328Z,54.07
2024-03-20T01:20:32.396Z,50.15
2024-03-20T01:21:32.431Z,53.62
2024-03-20T01:22:32.471Z,51.80
2024-03-20T01:23:32.535Z,50.85
2024-03-20T01:24:32.615Z,51.55
2024-03-20T01:25:32.660Z,51.89
2024-03-20T01:26:32.715Z,51.80
2024-03-20T01:27:32.794Z,50.95
2024-03-20T01:28:32.832Z,51.34
2024-03-20T01:29:32.904Z,51.28
2024-03-20T01:30:33.010Z,51.90
2024-03-20T01:31:33.032Z,50.26
2024-03-20T01:32:33.063Z,51.66
2024-03-20T01:33:33.154Z,51.61
2024-03-20T01:34:33.244Z,50.82
2024-03-20T01:35:33.256Z,51.90
2024-03-20T01:36:33.335Z,51.70
2024-03-20T01:37:33.371Z,51.26
2024-03-20T01:38:33.405Z,51.63
2024-03-20T01:39:33.491Z,53.12
2024-03-20T01:40:33.538Z,52.45
2024-03-20T01:41:33.592Z,51.85
2024-03-20T01:42:33.652Z,54.18
2024-03-20T01:43:33.716Z,52.28
2024-03-20T01:44:33.757Z,53.26
2024-03-20T01:45:33.832Z,51.34
2024-03-20T01:46:33.894Z,51.61
2024-03-20T01:47:33.934Z,51.67
2024-03-20T01:48:34.001Z,54.73
2024-03-20T01:49:34.043Z,53.05
2024-03-20T01:50:34.105Z,51.53
2024-03-20T01:51:34.176Z,51.32
2024-03-20T01:52:34.214Z,51.90
2024-03-20T01:53:34.297Z,51.24
2024-03-20T01:54:34.299Z,52.80
2024-03-20T01:55:34.359Z,50.66
2024-03-20T01:56:34.408Z,50.86
2024-03-20T01:57:34.472Z,52.27
2024-03-20T01:58:34.536Z,50.21
2024-03-20T01:59:34.584Z,52.15
2024-03-20T02:00:34.658Z,51.96
2024-03-20T02:01:34.667Z,51.68
2024-03-20T02:02:34.732Z,50.59
2024-03-20T02:03:34.781Z,50.47
2024-03-20T02:04:34.873Z,50.99
2024-03-20T02:05:35.139Z,53.19
2024-03-20T02:06:34.942Z,51.65
2024-03-20T02:07:35.001Z,52.29
2024-03-20T02:08:35.072Z,51.79
2024-03-20T02:09:35.121Z,50.64
2024-03-20T02:10:35.194Z,51.85
2024-03-20T02:11:35.237Z,50.00
2024-03-20T02:12:35.301Z,51.84
2024-03-20T02:13:35.332Z,52.09
2024-03-20T02:14:35.414Z,51.84
2024-03-20T02:15:35.510Z,50.56
2024-03-20T02:16:35.484Z,51.51
2024-03-20T02:17:35.562Z,51.04
2024-03-20T02:18:35.603Z,51.17
2024-03-20T02:19:35.700Z,53.14
2024-03-20T02:20:35.759Z,51.79
2024-03-20T02:21:35.805Z,53.19
2024-03-20T02:22:35.852Z,53.10
2024-03-20T02:23:35.923Z,52.99
2024-03-20T02:24:36.016Z,52.48
2024-03-20T02:25:36.102Z,52.53
2024-03-20T02:26:36.103Z,50.57
2024-03-20T02:27:36.183Z,53.63
2024-03-20T02:28:36.264Z,50.82
2024-03-20T02:29:36.338Z,51.14
2024-03-20T02:30:36.392Z,51.45
2024-03-20T02:31:36.462Z,51.49
2024-03-20T02:32:36.501Z,51.90
2024-03-20T02:33:36.597Z,51.50
2024-03-20T02:34:36.629Z,53.37
2024-03-20T02:35:36.747Z,52.23
2024-03-20T02:36:36.749Z,53.08
2024-03-20T02:37:36.829Z,52.39
2024-03-20T02:38:36.905Z,53.53
2024-03-20T02:39:36.969Z,51.98
2024-03-20T02:40:37.065Z,51.51
2024-03-20T02:41:37.140Z,52.39
2024-03-20T02:42:37.185Z,52.76
2024-03-20T02:43:37.256Z,53.65
2024-03-20T02:44:37.283Z,51.72
2024-03-20T02:45:37.344Z,51.95
2024-03-20T02:46:37.428Z,52.22
2024-03-20T02:47:37.582Z,52.62
2024-03-20T02:48:37.552Z,54.69
2024-03-20T02:49:37.612Z,52.80
2024-03-20T02:50:37.715Z,52.16
2024-03-20T02:51:37.768Z,51.55
2024-03-20T02:52:37.828Z,51.05
2024-03-20T02:53:37.898Z,51.83
2024-03-20T02:54:37.947Z,51.50
2024-03-20T02:55:38.059Z,52.66
2024-03-20T02:56:38.112Z,52.49
2024-03-20T02:57:38.174Z,52.54
2024-03-20T02:58:38.230Z,50.80
2024-03-20T02:59:38.349Z,53.58
2024-03-20T03:00:38.410Z,53.14
2024-03-20T03:01:38.434Z,54.64
2024-03-20T03:02:38.526Z,51.12
2024-03-20T03:03:38.607Z,52.52
2024-03-20T03:04:38.642Z,53.25
2024-03-20T03:05:38.707Z,51.98
2024-03-20T03:06:38.778Z,52.71
2024-03-20T03:07:38.863Z,50.60
2024-03-20T03:08:38.909Z,51.76
2024-03-20T03:09:38.972Z,51.73
2024-03-20T03:10:39.098Z,52.46
2024-03-20T03:11:39.102Z,52.84
2024-03-20T03:12:39.169Z,52.12
2024-03-20T03:13:39.240Z,51.45
2024-03-20T03:14:45.356Z,52.25
2024-03-20T03:15:40.330Z,52.31
2024-03-20T03:16:39.334Z,52.39
2024-03-20T03:17:39.316Z,52.41
2024-03-20T03:18:39.322Z,49.93
2024-03-20T03:19:39.336Z,52.28
2024-03-20T03:20:39.360Z,53.26
2024-03-20T03:21:39.350Z,50.52
2024-03-20T03:22:39.307Z,51.36
2024-03-20T03:23:39.461Z,52.07
2024-03-20T03:24:39.455Z,51.47
2024-03-20T03:25:39.492Z,51.25
2024-03-20T03:26:39.520Z,50.24
2024-03-20T03:27:39.516Z,50.47
2024-03-20T03:28:39.551Z,53.74
2024-03-20T03:29:39.638Z,54.37
2024-03-20T03:30:39.741Z,51.23
2024-03-20T03:31:39.768Z,52.41
2024-03-20T03:32:39.815Z,53.15
2024-03-20T03:33:39.888Z,54.80
2024-03-20T03:34:39.963Z,50.96
2024-03-20T03:35:40.042Z,52.01
2024-03-20T03:36:40.091Z,53.07
2024-03-20T03:37:40.142Z,52.47
2024-03-20T03:38:40.219Z,51.18
2024-03-20T03:39:40.316Z,53.91
2024-03-20T03:40:40.356Z,51.97
2024-03-20T03:41:40.416Z,52.29
2024-03-20T03:42:40.481Z,52.17
2024-03-20T03:43:40.543Z,54.51
2024-03-20T03:44:40.570Z,54.21
2024-03-20T03:45:40.647Z,51.67
2024-03-20T03:46:40.699Z,51.79
2024-03-20T03:47:40.779Z,52.98
2024-03-20T03:48:40.830Z,50.78
2024-03-20T03:49:40.883Z,53.46
2024-03-20T03:50:40.963Z,53.24
2024-03-20T03:51:41.033Z,53.68
2024-03-20T03:52:41.117Z,52.33
2024-03-20T03:53:41.169Z,51.60
2024-03-20T03:54:41.303Z,50.87
2024-03-20T03:55:41.319Z,51.20
2024-03-20T03:56:41.381Z,53.66
2024-03-20T03:57:41.463Z,51.26
2024-03-20T03:58:41.538Z,51.94
2024-03-20T03:59:41.626Z,50.93
2024-03-20T04:00:41.646Z,51.29
2024-03-20T04:01:41.756Z,53.39
2024-03-20T04:02:41.804Z,50.56
2024-03-20T04:03:41.890Z,54.26
2024-03-20T04:04:41.899Z,53.57
2024-03-20T04:05:41.902Z,51.73
2024-03-20T04:06:41.927Z,52.05
2024-03-20T04:07:42.028Z,52.50
2024-03-20T04:08:42.062Z,50.42
2024-03-20T04:09:42.149Z,51.32
2024-03-20T04:10:42.231Z,51.81
2024-03-20T04:11:42.285Z,51.97
2024-03-20T04:12:42.323Z,54.38
2024-03-20T04:13:42.426Z,52.96
2024-03-20T04:14:42.460Z,54.64
2024-03-20T04:15:42.546Z,52.05
2024-03-20T04:16:44.038Z,51.55
2024-03-20T04:17:42.682Z,51.14
2024-03-20T04:18:42.760Z,52.71
2024-03-20T04:19:42.845Z,51.50
2024-03-20T04:20:43.180Z,50.41
2024-03-20T04:21:42.964Z,54.23
2024-03-20T04:22:42.999Z,51.32
2024-03-20T04:23:43.080Z,51.98
2024-03-20T04:24:43.134Z,51.46
2024-03-20T04:25:43.229Z,50.87
2024-03-20T04:26:43.241Z,53.07
2024-03-20T04:27:43.310Z,51.68
2024-03-20T04:28:43.377Z,54.00
2024-03-20T04:29:43.433Z,52.59
2024-03-20T04:30:43.537Z,51.68
2024-03-20T04:31:43.583Z,51.48
2024-03-20T04:32:43.642Z,52.24
2024-03-20T04:33:43.720Z,52.16
2024-03-20T04:34:43.744Z,55.87
2024-03-20T04:35:43.829Z,54.10
2024-03-20T04:36:43.839Z,50.38
2024-03-20T04:37:43.884Z,53.75
2024-03-20T04:38:43.930Z,53.23
2024-03-20T04:39:43.937Z,51.97
2024-03-20T04:40:44.014Z,53.20
2024-03-20T04:41:44.064Z,50.27
2024-03-20T04:42:44.142Z,51.60
2024-03-20T04:43:44.199Z,52.20
2024-03-20T04:44:44.269Z,51.11
2024-03-20T04:45:44.360Z,51.37
2024-03-20T04:46:44.429Z,52.96
2024-03-20T04:47:44.422Z,52.86
2024-03-20T04:48:44.485Z,51.36
2024-03-20T04:49:44.555Z,50.58
2024-03-20T04:50:52.422Z,50.00
2024-03-20T04:51:52.404Z,50.00
2024-03-20T04:52:52.420Z,50.00
2024-03-20T04:53:52.435Z,50.00
2024-03-20T04:54:52.402Z,50.00
2024-03-20T04:55:52.431Z,51.52
2024-03-20T04:56:52.422Z,52.72
2024-03-20T04:57:52.413Z,52.27
2024-03-20T04:58:52.443Z,52.47
2024-03-20T04:59:52.417Z,52.72
2024-03-20T05:00:52.426Z,51.07
2024-03-20T05:01:52.429Z,52.52
2024-03-20T05:02:52.410Z,53.62
2024-03-20T05:03:52.405Z,52.54
2024-03-20T05:04:52.409Z,53.04
2024-03-20T05:05:52.444Z,52.05
2024-03-20T05:06:52.444Z,50.97
2024-03-20T05:07:52.425Z,51.08
2024-03-20T05:08:52.454Z,51.62
2024-03-20T05:09:52.414Z,50.88
2024-03-20T05:10:52.416Z,52.22
2024-03-20T05:11:52.433Z,51.95
2024-03-20T05:12:52.451Z,53.45
2024-03-20T05:13:52.407Z,52.39
2024-03-20T05:14:52.442Z,51.89
2024-03-20T05:15:52.526Z,54.61
2024-03-20T05:16:52.460Z,51.30
2024-03-20T05:17:52.463Z,53.29
2024-03-20T05:18:52.416Z,52.12
2024-03-20T05:19:52.452Z,55.25
2024-03-20T05:20:52.416Z,52.39
2024-03-20T05:21:52.462Z,53.87
2024-03-20T05:22:52.443Z,51.57
2024-03-20T05:23:52.451Z,53.54
2024-03-20T05:24:52.454Z,53.22
2024-03-20T05:25:52.470Z,53.27
2024-03-20T05:26:52.456Z,51.01
2024-03-20T05:27:52.429Z,50.65
2024-03-20T05:28:52.446Z,51.89
2024-03-20T05:29:52.482Z,51.43
2024-03-20T05:30:52.573Z,52.99
2024-03-20T05:31:52.620Z,50.90
2024-03-20T05:32:52.721Z,50.27
2024-03-20T05:33:52.781Z,50.66
2024-03-20T05:34:52.831Z,50.06
2024-03-20T05:35:52.892Z,53.06
2024-03-20T05:36:52.968Z,52.51
2024-03-20T05:37:53.016Z,50.78
2024-03-20T05:38:53.087Z,51.34
2024-03-20T05:39:53.143Z,50.00
2024-03-20T05:40:53.213Z,50.88
2024-03-20T05:41:53.254Z,50.91
2024-03-20T05:42:53.329Z,52.06
2024-03-20T05:43:53.374Z,51.93
2024-03-20T05:44:53.454Z,50.53
2024-03-20T05:45:53.512Z,51.66
2024-03-20T05:46:53.570Z,51.83
2024-03-20T05:47:53.609Z,52.37
2024-03-20T05:48:53.672Z,51.01
2024-03-20T05:49:53.748Z,51.98
2024-03-20T05:50:53.821Z,50.31
2024-03-20T05:51:53.857Z,50.81
2024-03-20T05:52:53.930Z,50.92
2024-03-20T05:53:53.978Z,51.38
2024-03-20T05:54:54.024Z,51.83
2024-03-20T05:55:54.104Z,52.00
2024-03-20T05:56:54.135Z,51.74
2024-03-20T05:57:54.191Z,51.51
2024-03-20T05:58:54.319Z,51.23
2024-03-20T05:59:54.295Z,50.98
2024-03-20T06:00:54.341Z,51.86
2024-03-20T06:01:54.354Z,51.21
2024-03-20T06:02:54.459Z,50.96
2024-03-20T06:03:54.466Z,52.57
2024-03-20T06:04:54.501Z,52.35
2024-03-20T06:05:54.553Z,50.92
2024-03-20T06:06:54.609Z,52.08
2024-03-20T06:07:54.618Z,52.06
2024-03-20T06:09:15.651Z,52.01
2024-03-20T06:09:54.641Z,52.30
2024-03-20T06:10:54.649Z,53.37
2024-03-20T06:11:54.641Z,54.67
2024-03-20T06:12:54.655Z,56.25
2024-03-20T06:13:54.646Z,57.77
2024-03-20T06:14:54.642Z,58.14
2024-03-20T06:15:54.661Z,58.90
2024-03-20T06:16:54.656Z,57.49
2024-03-20T06:17:54.662Z,56.59
2024-03-20T06:18:54.668Z,57.50
2024-03-20T06:19:54.648Z,57.05
2024-03-20T06:20:54.653Z,56.65
2024-03-20T06:21:54.664Z,57.55
2024-03-20T06:22:54.661Z,56.21
2024-03-20T06:23:54.663Z,56.09
2024-03-20T06:24:54.639Z,56.66
2024-03-20T06:25:54.671Z,57.27
2024-03-20T06:26:54.675Z,57.14
2024-03-20T06:27:54.698Z,56.90
2024-03-20T06:28:54.651Z,56.88
2024-03-20T06:29:54.656Z,56.13
2024-03-20T06:30:54.670Z,57.13
2024-03-20T06:31:54.671Z,55.94
2024-03-20T06:32:54.686Z,56.88
2024-03-20T06:33:54.670Z,56.89
2024-03-20T06:34:54.681Z,54.92
2024-03-20T06:35:54.677Z,55.76
2024-03-20T06:36:54.671Z,56.43
2024-03-20T06:37:54.671Z,55.98
2024-03-20T06:38:54.669Z,57.44
2024-03-20T06:39:54.675Z,55.96
2024-03-20T06:40:54.675Z,56.84
2024-03-20T06:41:54.697Z,57.91
2024-03-20T06:42:54.693Z,56.89
2024-03-20T06:43:54.697Z,57.44
2024-03-20T06:44:54.667Z,55.46
2024-03-20T06:45:54.702Z,58.67
2024-03-20T06:46:54.705Z,56.75
2024-03-20T06:47:54.744Z,57.02
2024-03-20T06:48:54.703Z,57.58
2024-03-20T06:49:54.693Z,57.19
2024-03-20T06:50:54.697Z,56.59
2024-03-20T06:51:54.705Z,55.49
2024-03-20T06:52:54.713Z,58.21
2024-03-20T06:53:54.713Z,59.67
2024-03-20T06:54:54.699Z,57.61
2024-03-20T06:55:54.695Z,57.71
2024-03-20T06:56:54.701Z,58.32
2024-03-20T06:57:54.715Z,58.57
2024-03-20T06:58:54.718Z,55.12
2024-03-20T06:59:54.716Z,57.80
2024-03-20T07:00:54.723Z,55.98
2024-03-20T07:01:54.724Z,57.52
2024-03-20T07:02:55.527Z,58.81
2024-03-20T07:03:54.733Z,58.18
2024-03-20T07:04:54.712Z,58.18
2024-03-20T07:05:54.723Z,60.06
2024-03-20T07:06:54.718Z,58.13
2024-03-20T07:07:54.719Z,58.56
2024-03-20T07:08:54.775Z,59.03
2024-03-20T07:09:54.790Z,60.94
2024-03-20T07:10:54.841Z,59.02
2024-03-20T07:11:54.899Z,59.44
2024-03-20T07:12:54.943Z,58.54
2024-03-20T07:13:54.956Z,58.14
2024-03-20T07:14:55.003Z,58.84
2024-03-20T07:15:55.029Z,57.16
2024-03-20T07:16:55.084Z,60.22
2024-03-20T07:17:55.144Z,60.99
2024-03-20T07:18:55.188Z,59.61
2024-03-20T07:19:55.192Z,60.35
2024-03-20T07:20:55.224Z,60.79
2024-03-20T07:21:55.283Z,58.20
2024-03-20T07:22:55.288Z,59.19
2024-03-20T07:23:55.331Z,60.07
2024-03-20T07:24:55.548Z,60.25
2024-03-20T07:25:55.410Z,57.17
2024-03-20T07:26:55.450Z,61.01
2024-03-20T07:27:55.461Z,60.31
2024-03-20T07:28:55.530Z,58.28
2024-03-20T07:29:55.560Z,59.42
2024-03-20T07:30:55.580Z,57.59
2024-03-20T07:31:55.628Z,58.98
2024-03-20T07:32:55.660Z,58.25
2024-03-20T07:33:55.702Z,58.30
2024-03-20T07:34:55.717Z,60.30
2024-03-20T07:35:55.744Z,58.79
2024-03-20T07:36:55.896Z,58.17
2024-03-20T07:37:55.881Z,60.93
2024-03-20T07:38:55.859Z,58.24
2024-03-20T07:39:55.908Z,59.01
2024-03-20T07:40:55.965Z,59.41
2024-03-20T07:41:55.921Z,60.67
2024-03-20T07:42:55.975Z,59.15
2024-03-20T07:43:56.036Z,59.56
2024-03-20T07:44:56.026Z,59.22
2024-03-20T07:45:56.067Z,59.95
2024-03-20T07:46:56.124Z,60.41
2024-03-20T07:47:56.069Z,60.70
2024-03-20T07:48:56.116Z,59.90
2024-03-20T07:49:56.119Z,58.73
2024-03-20T07:50:56.232Z,58.90
2024-03-20T07:51:56.211Z,58.23
2024-03-20T07:52:56.212Z,58.25
2024-03-20T07:53:56.263Z,59.94
2024-03-20T07:54:56.272Z,59.18
2024-03-20T07:55:56.345Z,55.49
2024-03-20T07:56:56.375Z,53.76
2024-03-20T07:57:56.402Z,54.66
2024-03-20T07:58:56.420Z,54.69
2024-03-20T07:59:56.485Z,51.44
2024-03-20T08:00:56.562Z,51.58
2024-03-20T08:01:56.611Z,55.27
2024-03-20T08:02:56.588Z,52.08
2024-03-20T08:03:56.586Z,51.16
2024-03-20T08:04:56.637Z,53.51
2024-03-20T08:05:56.752Z,51.14
2024-03-20T08:06:56.839Z,50.39
2024-03-20T08:07:56.837Z,50.62
2024-03-20T08:08:56.841Z,51.31
2024-03-20T08:09:56.842Z,50.00
2024-03-20T08:10:56.863Z,51.32
2024-03-20T08:11:56.870Z,52.69
2024-03-20T08:12:56.869Z,50.11
2024-03-20T08:13:56.871Z,53.16
2024-03-20T08:14:56.918Z,52.49
2024-03-20T08:15:56.921Z,57.19
2024-03-20T08:16:57.019Z,51.51
2024-03-20T08:17:56.989Z,54.17
2024-03-20T08:18:57.059Z,52.13
2024-03-20T08:19:57.096Z,57.36
2024-03-20T08:20:57.166Z,64.04
2024-03-20T08:21:57.237Z,63.76
2024-03-20T08:22:57.337Z,67.28
2024-03-20T08:23:57.394Z,65.16
2024-03-20T08:24:57.449Z,66.91
2024-03-20T08:25:57.502Z,66.58
2024-03-20T08:26:57.579Z,64.18
2024-03-20T08:27:57.629Z,65.20
2024-03-20T08:28:57.719Z,70.53
2024-03-20T08:29:57.798Z,70.79
2024-03-20T08:30:57.812Z,72.49
2024-03-20T08:31:57.904Z,73.91
2024-03-20T08:32:57.935Z,77.22
2024-03-20T08:33:57.980Z,80.79
2024-03-20T08:34:58.030Z,85.01
2024-03-20T08:35:58.149Z,91.46
2024-03-20T08:36:58.075Z,98.55
2024-03-20T08:37:58.092Z,102.59
2024-03-20T08:38:58.107Z,111.99
2024-03-20T08:39:58.173Z,119.13
2024-03-20T08:40:58.209Z,124.88
2024-03-20T08:41:58.273Z,129.04
2024-03-20T08:42:58.305Z,133.86
2024-03-20T08:43:58.405Z,138.28
2024-03-20T08:44:58.466Z,145.52
2024-03-20T08:45:58.528Z,150.20
2024-03-20T08:46:58.618Z,156.25
2024-03-20T08:47:58.648Z,161.18
2024-03-20T08:48:58.797Z,165.30
2024-03-20T08:49:58.780Z,171.00
2024-03-20T08:50:58.854Z,174.61
2024-03-20T08:51:58.935Z,181.34
2024-03-20T08:52:58.984Z,186.47
2024-03-20T08:53:59.043Z,190.96
2024-03-20T08:54:59.108Z,196.23
2024-03-20T08:55:59.151Z,200.00
2024-03-20T08:56:59.240Z,200.07
2024-03-20T08:57:59.297Z,200.33
2024-03-20T08:58:59.492Z,199.19
2024-03-20T08:59:59.428Z,199.30
2024-03-20T09:00:59.574Z,200.22
2024-03-20T09:01:59.537Z,200.79
2024-03-20T09:02:59.645Z,198.97
2024-03-20T09:03:59.662Z,199.40
2024-03-20T09:04:59.733Z,199.98
2024-03-20T09:05:59.803Z,199.51
2024-03-20T09:06:59.874Z,199.35
2024-03-20T09:07:59.927Z,200.00
2024-03-20T09:08:59.984Z,200.29
2024-03-20T09:10:00.152Z,200.00
2024-03-20T09:11:00.112Z,200.04
2024-03-20T09:12:00.148Z,199.12
2024-03-20T09:13:00.174Z,200.00
2024-03-20T09:14:00.216Z,200.00
2024-03-20T09:15:00.385Z,199.69
2024-03-20T09:16:00.321Z,200.00
2024-03-20T09:17:00.393Z,200.00
2024-03-20T09:18:00.431Z,199.02
2024-03-20T09:19:00.481Z,199.85
2024-03-20T09:20:00.521Z,200.00
2024-03-20T09:21:00.565Z,199.64
2024-03-20T09:22:01.990Z,200.00
2024-03-20T09:23:00.636Z,199.24
2024-03-20T09:24:00.599Z,199.88
2024-03-20T09:25:00.633Z,199.42
2024-03-20T09:26:00.607Z,199.52
2024-03-20T09:27:02.104Z,199.31
2024-03-20T09:28:00.603Z,199.43
2024-03-20T09:29:00.618Z,200.22
2024-03-20T09:30:00.691Z,201.66
2024-03-20T09:31:00.651Z,205.74
2024-03-20T09:32:00.633Z,211.10
2024-03-20T09:33:01.672Z,199.94
2024-03-20T09:34:00.685Z,202.32
2024-03-20T09:35:00.677Z,206.80
2024-03-20T09:36:00.628Z,214.30
2024-03-20T09:37:00.640Z,223.86
2024-03-20T09:38:00.635Z,216.06
2024-03-20T09:39:00.635Z,206.70
2024-03-20T09:40:00.657Z,200.00
2024-03-20T09:41:00.646Z,199.35
2024-03-20T09:42:00.677Z,200.00
2024-03-20T09:43:00.660Z,199.84
2024-03-20T09:44:00.661Z,200.00
2024-03-20T09:45:00.643Z,199.23
2024-03-20T09:46:00.643Z,199.87
2024-03-20T09:47:00.662Z,199.18
2024-03-20T09:48:00.648Z,199.77
2024-03-20T09:49:00.661Z,199.19
2024-03-20T09:50:00.679Z,199.25
2024-03-20T09:51:00.738Z,198.55
2024-03-20T09:52:00.815Z,200.02
2024-03-20T09:53:00.805Z,197.77
2024-03-20T09:54:00.858Z,199.24
2024-03-20T09:55:00.874Z,198.35
2024-03-20T09:56:00.935Z,199.36
2024-03-20T09:57:00.992Z,196.96
2024-03-20T09:58:02.468Z,198.03
2024-03-20T09:59:01.032Z,196.45
2024-03-20T10:00:01.113Z,196.28
2024-03-20T10:01:01.143Z,195.71
2024-03-20T10:02:01.195Z,192.95
2024-03-20T10:03:01.257Z,193.36
2024-03-20T10:04:01.313Z,192.05
2024-03-20T10:05:01.374Z,191.19
2024-03-20T10:06:01.411Z,190.96
2024-03-20T10:07:01.507Z,190.52
2024-03-20T10:08:01.578Z,190.62
2024-03-20T10:09:01.660Z,189.21
2024-03-20T10:10:01.858Z,189.77
2024-03-20T10:11:01.764Z,188.84
2024-03-20T10:12:01.833Z,187.26
2024-03-20T10:13:01.905Z,188.10
2024-03-20T10:14:01.970Z,186.82
2024-03-20T10:15:02.062Z,187.38
2024-03-20T10:16:06.702Z,186.37
2024-03-20T10:17:09.772Z,186.39
2024-03-20T10:18:03.120Z,186.44
2024-03-20T10:19:02.122Z,185.80
2024-03-20T10:20:02.123Z,185.00
2024-03-20T10:21:02.120Z,183.88
2024-03-20T10:22:02.113Z,182.49
2024-03-20T10:23:02.130Z,183.20
2024-03-20T10:24:02.136Z,180.96
2024-03-20T10:25:02.123Z,180.66
2024-03-20T10:26:02.137Z,180.33
2024-03-20T10:27:02.119Z,180.25
2024-03-20T10:28:02.121Z,180.32
2024-03-20T10:29:02.136Z,178.96
2024-03-20T10:30:02.142Z,179.57
2024-03-20T10:31:02.116Z,178.29
2024-03-20T10:32:02.118Z,177.89
2024-03-20T10:33:02.166Z,177.24
2024-03-20T10:34:02.139Z,177.51
2024-03-20T10:35:02.162Z,175.71
2024-03-20T10:36:02.120Z,176.31
2024-03-20T10:37:02.132Z,175.83
2024-03-20T10:38:02.137Z,174.31
2024-03-20T10:39:06.669Z,174.72
2024-03-20T10:40:03.160Z,174.75
2024-03-20T10:41:02.158Z,174.57
2024-03-20T10:42:02.288Z,173.12
2024-03-20T10:43:02.150Z,173.82
2024-03-20T10:44:02.159Z,173.41
2024-03-20T10:45:02.149Z,172.02
2024-03-20T10:46:02.147Z,172.10
2024-03-20T10:47:02.164Z,171.82
2024-03-20T10:48:02.165Z,171.68
2024-03-20T10:49:02.161Z,171.37
2024-03-20T10:50:02.169Z,168.98
2024-03-20T10:51:02.143Z,170.28
2024-03-20T10:52:02.628Z,168.64
2024-03-20T10:53:02.134Z,167.04
2024-03-20T10:54:02.153Z,165.48
2024-03-20T10:55:02.173Z,162.51
2024-03-20T10:56:02.164Z,161.61
2024-03-20T10:57:02.166Z,160.96
2024-03-20T10:58:02.173Z,160.22
2024-03-20T10:59:02.173Z,160.45
2024-03-20T11:00:02.174Z,158.83
2024-03-20T11:01:02.163Z,160.20
2024-03-20T11:02:02.154Z,158.58
2024-03-20T11:03:02.167Z,158.48
2024-03-20T11:04:02.181Z,157.02
2024-03-20T11:05:02.188Z,158.08
2024-03-20T11:06:02.208Z,156.30
2024-03-20T11:07:02.634Z,156.34
2024-03-20T11:08:02.253Z,155.41
2024-03-20T11:09:02.253Z,153.92
2024-03-20T11:10:02.290Z,153.43
2024-03-20T11:11:02.280Z,152.44
2024-03-20T11:12:02.361Z,152.56
2024-03-20T11:13:02.331Z,152.43
2024-03-20T11:14:02.354Z,150.86
2024-03-20T11:15:02.330Z,151.36
2024-03-20T11:16:02.361Z,150.17
2024-03-20T11:17:02.396Z,151.03
2024-03-20T11:18:02.415Z,149.73
2024-03-20T11:19:02.545Z,150.66
2024-03-20T11:20:02.445Z,149.86
2024-03-20T11:21:02.469Z,149.42
2024-03-20T11:22:02.508Z,149.71
2024-03-20T11:23:02.525Z,149.23
2024-03-20T11:24:02.540Z,149.04
2024-03-20T11:25:02.547Z,148.39
2024-03-20T11:26:02.578Z,148.11
2024-03-20T11:27:02.599Z,147.96
2024-03-20T11:28:02.612Z,147.94
2024-03-20T11:29:02.663Z,147.05
2024-03-20T11:30:02.669Z,146.98
2024-03-20T11:31:02.692Z,145.42
2024-03-20T11:32:02.728Z,145.79
2024-03-20T11:33:02.720Z,145.47
2024-03-20T11:34:02.771Z,145.10
2024-03-20T11:35:02.780Z,144.96
2024-03-20T11:36:02.805Z,143.19
2024-03-20T11:37:02.829Z,143.27
2024-03-20T11:38:02.842Z,143.01
2024-03-20T11:39:02.869Z,142.28
2024-03-20T11:40:02.875Z,142.94
2024-03-20T11:41:02.924Z,142.36
2024-03-20T11:42:03.158Z,141.11
2024-03-20T11:43:02.990Z,140.19
2024-03-20T11:44:03.012Z,141.17
2024-03-20T11:45:03.047Z,140.71
2024-03-20T11:46:03.090Z,141.40
2024-03-20T11:47:03.116Z,140.53
2024-03-20T11:48:03.126Z,140.37
2024-03-20T11:49:03.167Z,139.89
2024-03-20T11:50:03.224Z,139.31
2024-03-20T11:51:03.250Z,139.62
2024-03-20T11:52:03.268Z,139.52
2024-03-20T11:53:06.877Z,137.89
2024-03-20T11:54:03.302Z,139.04
2024-03-20T11:55:03.314Z,138.30
2024-03-20T11:56:03.324Z,137.41
2024-03-20T11:57:03.316Z,137.96
2024-03-20T11:58:03.320Z,137.01
2024-03-20T11:59:03.330Z,136.62
2024-03-20T12:00:03.349Z,136.20
2024-03-20T12:01:03.323Z,136.18
2024-03-20T12:02:03.312Z,134.33
2024-03-20T12:03:03.332Z,134.27
2024-03-20T12:04:03.357Z,134.41
2024-03-20T12:05:03.324Z,133.09
2024-03-20T12:06:03.352Z,133.21
2024-03-20T12:07:03.345Z,133.80
2024-03-20T12:08:03.342Z,133.27
2024-03-20T12:09:03.322Z,132.94
2024-03-20T12:10:03.348Z,131.17
2024-03-20T12:11:03.325Z,131.69
2024-03-20T12:12:03.336Z,131.45
2024-03-20T12:13:03.324Z,131.03
2024-03-20T12:14:03.328Z,128.93
2024-03-20T12:15:03.342Z,129.41
2024-03-20T12:16:03.328Z,129.75
2024-03-20T12:17:05.190Z,128.15
2024-03-20T12:18:03.316Z,128.19
2024-03-20T12:19:03.315Z,128.20
2024-03-20T12:20:03.360Z,128.28
2024-03-20T12:21:03.334Z,127.96
2024-03-20T12:22:03.347Z,127.53
2024-03-20T12:23:03.326Z,126.94
2024-03-20T12:24:03.361Z,126.72
2024-03-20T12:25:07.636Z,126.63
2024-03-20T12:26:04.361Z,126.70
2024-03-20T12:27:03.361Z,126.39
2024-03-20T12:28:03.349Z,125.22
2024-03-20T12:29:03.371Z,126.07
2024-03-20T12:30:03.338Z,124.68
2024-03-20T12:31:03.361Z,124.11
2024-03-20T12:32:03.362Z,122.56
2024-03-20T12:33:03.375Z,123.61
2024-03-20T12:34:03.366Z,123.17
2024-03-20T12:35:03.380Z,121.98
2024-03-20T12:36:03.375Z,121.85
2024-03-20T12:37:04.184Z,121.85
2024-03-20T12:38:03.373Z,120.89
2024-03-20T12:39:03.377Z,120.08
2024-03-20T12:40:03.370Z,121.27
2024-03-20T12:41:03.379Z,122.10
2024-03-20T12:42:03.402Z,119.92
2024-03-20T12:43:03.460Z,120.45
2024-03-20T12:44:03.394Z,120.42
2024-03-20T12:45:03.386Z,121.44